sensor_id;sensor_type;location;lat;lon;timestamp;pressure;altitude;pressure_sealevel;temperature;humidity
86020;BME280;76596;51.056;-1.798;2024-03-17T00:01:04;100941.09;;;10.07;89.42
86020;BME280;76596;51.056;-1.798;2024-03-17T00:03:30;100938.53;;;10.03;89.87
86020;BME280;76596;51.056;-1.798;2024-03-17T00:06:00;100938.53;;;10.07;89.64
86020;BME280;76596;51.056;-1.798;2024-03-17T00:08:26;100937.66;;;10.07;89.46
86020;BME280;76596;51.056;-1.798;2024-03-17T00:10:53;100935.09;;;10.04;89.53
86020;BME280;76596;51.056;-1.798;2024-03-17T00:13:18;100935.09;;;10.07;89.53
86020;BME280;76596;51.056;-1.798;2024-03-17T00:15:44;100934.22;;;10.16;89.39
86020;BME280;76596;51.056;-1.798;2024-03-17T00:18:10;100935.94;;;10.12;89.64
86020;BME280;76596;51.056;-1.798;2024-03-17T00:20:36;100924.81;;;10.16;89.53
86020;BME280;76596;51.056;-1.798;2024-03-17T00:23:03;100933.34;;;10.15;89.47
86020;BME280;76596;51.056;-1.798;2024-03-17T00:25:34;100924.81;;;10.13;89.24
86020;BME280;76596;51.056;-1.798;2024-03-17T00:28:01;100917.94;;;10.15;89.33
86020;BME280;76596;51.056;-1.798;2024-03-17T00:30:26;100916.25;;;10.17;88.94
86020;BME280;76596;51.056;-1.798;2024-03-17T00:32:52;100916.25;;;10.16;88.96
86020;BME280;76596;51.056;-1.798;2024-03-17T00:35:17;100913.69;;;10.16;89.25
86020;BME280;76596;51.056;-1.798;2024-03-17T00:37:49;100911.13;;;10.13;88.88
86020;BME280;76596;51.056;-1.798;2024-03-17T00:40:17;100906.84;;;10.16;89.29
86020;BME280;76596;51.056;-1.798;2024-03-17T00:42:43;100906.84;;;10.12;89.45
86020;BME280;76596;51.056;-1.798;2024-03-17T00:45:12;100904.31;;;10.10;89.36
86020;BME280;76596;51.056;-1.798;2024-03-17T00:47:37;100905.13;;;10.09;89.06
86020;BME280;76596;51.056;-1.798;2024-03-17T00:50:04;100899.16;;;10.10;89.37
86020;BME280;76596;51.056;-1.798;2024-03-17T00:52:31;100899.16;;;10.12;88.77
86020;BME280;76596;51.056;-1.798;2024-03-17T00:54:57;100896.56;;;10.13;89.09
86020;BME280;76596;51.056;-1.798;2024-03-17T00:57:23;100894.00;;;10.13;88.76
86020;BME280;76596;51.056;-1.798;2024-03-17T00:59:49;100894.00;;;10.13;88.65
86020;BME280;76596;51.056;-1.798;2024-03-17T01:02:15;100893.13;;;10.14;88.66
86020;BME280;76596;51.056;-1.798;2024-03-17T01:04:42;100887.16;;;10.17;88.48
86020;BME280;76596;51.056;-1.798;2024-03-17T01:07:09;100882.88;;;10.14;88.81
86020;BME280;76596;51.056;-1.798;2024-03-17T01:09:34;100888.03;;;10.16;88.44
86020;BME280;76596;51.056;-1.798;2024-03-17T01:12:00;100890.56;;;10.17;88.33
86020;BME280;76596;51.056;-1.798;2024-03-17T01:14:26;100876.88;;;10.17;88.47
86020;BME280;76596;51.056;-1.798;2024-03-17T01:16:51;100874.34;;;10.12;88.37
86020;BME280;76596;51.056;-1.798;2024-03-17T01:19:17;100866.63;;;10.09;88.82
86020;BME280;76596;51.056;-1.798;2024-03-17T01:21:42;100867.47;;;10.10;88.88
86020;BME280;76596;51.056;-1.798;2024-03-17T01:24:08;100861.50;;;10.09;88.33
86020;BME280;76596;51.056;-1.798;2024-03-17T01:26:33;100861.50;;;10.09;88.61
86020;BME280;76596;51.056;-1.798;2024-03-17T01:28:58;100852.94;;;10.13;88.38
86020;BME280;76596;51.056;-1.798;2024-03-17T01:31:24;100851.25;;;10.11;88.55
86020;BME280;76596;51.056;-1.798;2024-03-17T01:33:50;100842.66;;;10.13;87.88
86020;BME280;76596;51.056;-1.798;2024-03-17T01:36:15;100842.66;;;10.13;88.00
86020;BME280;76596;51.056;-1.798;2024-03-17T01:38:41;100843.50;;;10.15;88.13
86020;BME280;76596;51.056;-1.798;2024-03-17T01:41:06;100843.50;;;10.15;87.99
86020;BME280;76596;51.056;-1.798;2024-03-17T01:43:32;100836.66;;;10.14;88.09
86020;BME280;76596;51.056;-1.798;2024-03-17T01:45:58;100827.25;;;10.15;87.56
86020;BME280;76596;51.056;-1.798;2024-03-17T01:48:24;100817.88;;;10.11;87.82
86020;BME280;76596;51.056;-1.798;2024-03-17T01:50:52;100821.31;;;10.08;87.71
86020;BME280;76596;51.056;-1.798;2024-03-17T01:53:18;100820.44;;;10.09;88.09
86020;BME280;76596;51.056;-1.798;2024-03-17T01:55:45;100818.75;;;10.08;88.18
86020;BME280;76596;51.056;-1.798;2024-03-17T01:58:12;100820.44;;;10.11;87.64
86020;BME280;76596;51.056;-1.798;2024-03-17T02:00:39;100811.88;;;10.08;87.70
86020;BME280;76596;51.056;-1.798;2024-03-17T02:03:08;100811.06;;;10.03;87.69
86020;BME280;76596;51.056;-1.798;2024-03-17T02:05:37;100805.94;;;10.03;88.04
86020;BME280;76596;51.056;-1.798;2024-03-17T02:08:04;100804.22;;;10.05;87.59
86020;BME280;76596;51.056;-1.798;2024-03-17T02:10:29;100806.78;;;10.04;87.44
86020;BME280;76596;51.056;-1.798;2024-03-17T02:12:55;100797.41;;;10.01;88.05
86020;BME280;76596;51.056;-1.798;2024-03-17T02:15:20;100792.28;;;9.97;87.97
86020;BME280;76596;51.056;-1.798;2024-03-17T02:17:46;100796.59;;;9.95;88.22
86020;BME280;76596;51.056;-1.798;2024-03-17T02:20:11;100786.31;;;9.95;87.83
86020;BME280;76596;51.056;-1.798;2024-03-17T02:22:37;100779.44;;;9.97;88.00
86020;BME280;76596;51.056;-1.798;2024-03-17T02:25:03;100788.03;;;9.93;88.25
86020;BME280;76596;51.056;-1.798;2024-03-17T02:27:29;100788.88;;;9.96;88.41
86020;BME280;76596;51.056;-1.798;2024-03-17T02:29:55;100780.31;;;9.96;88.20
86020;BME280;76596;51.056;-1.798;2024-03-17T02:32:20;100787.16;;;9.92;88.05
86020;BME280;76596;51.056;-1.798;2024-03-17T02:34:48;100774.31;;;9.97;88.50
86020;BME280;76596;51.056;-1.798;2024-03-17T02:37:13;100770.06;;;9.96;87.86
86020;BME280;76596;51.056;-1.798;2024-03-17T02:39:39;100764.94;;;9.94;88.59
86020;BME280;76596;51.056;-1.798;2024-03-17T02:42:09;100770.03;;;10.00;88.23
86020;BME280;76596;51.056;-1.798;2024-03-17T02:44:36;100768.28;;;10.02;87.76
86020;BME280;76596;51.056;-1.798;2024-03-17T02:47:03;100760.66;;;9.95;88.31
86020;BME280;76596;51.056;-1.798;2024-03-17T02:49:30;100759.78;;;9.96;88.13
86020;BME280;76596;51.056;-1.798;2024-03-17T02:52:02;100753.81;;;9.94;88.17
86020;BME280;76596;51.056;-1.798;2024-03-17T02:54:28;100746.13;;;9.94;88.46
86020;BME280;76596;51.056;-1.798;2024-03-17T02:56:53;100738.44;;;9.94;88.39
86020;BME280;76596;51.056;-1.798;2024-03-17T02:59:19;100737.53;;;9.99;88.32
86020;BME280;76596;51.056;-1.798;2024-03-17T03:01:44;100734.09;;;10.00;88.16
86020;BME280;76596;51.056;-1.798;2024-03-17T03:04:10;100733.25;;;9.97;88.20
86020;BME280;76596;51.056;-1.798;2024-03-17T03:06:37;100726.44;;;9.94;88.51
86020;BME280;76596;51.056;-1.798;2024-03-17T03:09:03;100723.84;;;9.97;88.12
86020;BME280;76596;51.056;-1.798;2024-03-17T03:11:30;100720.41;;;10.01;88.04
86020;BME280;76596;51.056;-1.798;2024-03-17T03:13:56;100720.44;;;9.95;88.09
86020;BME280;76596;51.056;-1.798;2024-03-17T03:16:21;100713.63;;;9.94;88.34
86020;BME280;76596;51.056;-1.798;2024-03-17T03:18:47;100708.44;;;9.97;88.24
86020;BME280;76596;51.056;-1.798;2024-03-17T03:21:12;100713.56;;;10.02;87.73
86020;BME280;76596;51.056;-1.798;2024-03-17T03:23:38;100705.00;;;10.01;87.75
86020;BME280;76596;51.056;-1.798;2024-03-17T03:26:03;100704.19;;;9.99;87.82
86020;BME280;76596;51.056;-1.798;2024-03-17T03:28:31;100705.00;;;10.01;88.34
86020;BME280;76596;51.056;-1.798;2024-03-17T03:30:57;100703.28;;;10.02;87.78
86020;BME280;76596;51.056;-1.798;2024-03-17T03:33:23;100694.75;;;10.00;88.03
86020;BME280;76596;51.056;-1.798;2024-03-17T03:35:49;100698.22;;;9.96;87.90
86020;BME280;76596;51.056;-1.798;2024-03-17T03:38:16;100699.84;;;10.03;87.68
86020;BME280;76596;51.056;-1.798;2024-03-17T03:40:42;100702.41;;;10.03;87.64
86020;BME280;76596;51.056;-1.798;2024-03-17T03:43:11;100686.22;;;9.99;88.28
86020;BME280;76596;51.056;-1.798;2024-03-17T03:45:38;100691.34;;;9.98;88.14
86020;BME280;76596;51.056;-1.798;2024-03-17T03:48:04;100686.19;;;10.01;88.38
86020;BME280;76596;51.056;-1.798;2024-03-17T03:50:29;100684.50;;;9.97;88.12
86020;BME280;76596;51.056;-1.798;2024-03-17T03:52:55;100690.47;;;10.02;88.14
86020;BME280;76596;51.056;-1.798;2024-03-17T03:55:21;100686.16;;;10.04;88.27
86020;BME280;76596;51.056;-1.798;2024-03-17T03:57:46;100681.91;;;10.01;88.43
86020;BME280;76596;51.056;-1.798;2024-03-17T04:00:14;100672.50;;;10.00;88.02
86020;BME280;76596;51.056;-1.798;2024-03-17T04:02:41;100670.81;;;9.99;88.08
86020;BME280;76596;51.056;-1.798;2024-03-17T04:05:07;100668.22;;;10.01;88.47
86020;BME280;76596;51.056;-1.798;2024-03-17T04:07:33;100669.94;;;10.02;88.27
86020;BME280;76596;51.056;-1.798;2024-03-17T04:09:59;100661.38;;;10.03;88.48
86020;BME280;76596;51.056;-1.798;2024-03-17T04:12:25;100658.81;;;10.01;88.65
86020;BME280;76596;51.056;-1.798;2024-03-17T04:14:51;100662.25;;;9.97;88.77
86020;BME280;76596;51.056;-1.798;2024-03-17T04:17:19;100662.25;;;10.00;89.04
86020;BME280;76596;51.056;-1.798;2024-03-17T04:19:49;100661.41;;;10.00;89.01
86020;BME280;76596;51.056;-1.798;2024-03-17T04:22:18;100658.88;;;9.95;89.08
86020;BME280;76596;51.056;-1.798;2024-03-17T04:24:45;100654.59;;;9.93;89.00
86020;BME280;76596;51.056;-1.798;2024-03-17T04:27:10;100647.81;;;9.89;89.88
86020;BME280;76596;51.056;-1.798;2024-03-17T04:29:36;100662.31;;;9.91;89.71
86020;BME280;76596;51.056;-1.798;2024-03-17T04:32:02;100650.34;;;9.90;89.73
86020;BME280;76596;51.056;-1.798;2024-03-17T04:34:27;100651.25;;;9.88;89.62
86020;BME280;76596;51.056;-1.798;2024-03-17T04:36:53;100649.50;;;9.87;89.90
86020;BME280;76596;51.056;-1.798;2024-03-17T04:39:21;100650.41;;;9.83;90.05
86020;BME280;76596;51.056;-1.798;2024-03-17T04:41:49;100642.72;;;9.81;90.22
86020;BME280;76596;51.056;-1.798;2024-03-17T04:44:16;100646.16;;;9.78;90.20
86020;BME280;76596;51.056;-1.798;2024-03-17T04:46:41;100646.16;;;9.75;91.00
86020;BME280;76596;51.056;-1.798;2024-03-17T04:49:06;100647.00;;;9.82;90.87
86020;BME280;76596;51.056;-1.798;2024-03-17T04:51:33;100641.88;;;9.76;90.52
86020;BME280;76596;51.056;-1.798;2024-03-17T04:53:59;100636.78;;;9.77;91.25
86020;BME280;76596;51.056;-1.798;2024-03-17T04:56:25;100629.94;;;9.76;90.85
86020;BME280;76596;51.056;-1.798;2024-03-17T04:58:50;100627.38;;;9.75;90.75
86020;BME280;76596;51.056;-1.798;2024-03-17T05:01:16;100626.50;;;9.77;90.87
86020;BME280;76596;51.056;-1.798;2024-03-17T05:06:06;100625.63;;;9.78;91.19
86020;BME280;76596;51.056;-1.798;2024-03-17T05:08:33;100621.38;;;9.77;91.14
86020;BME280;76596;51.056;-1.798;2024-03-17T05:11:00;100621.38;;;9.76;91.14
86020;BME280;76596;51.056;-1.798;2024-03-17T05:13:26;100622.22;;;9.78;91.19
86020;BME280;76596;51.056;-1.798;2024-03-17T05:15:53;100622.22;;;9.79;91.38
86020;BME280;76596;51.056;-1.798;2024-03-17T05:18:18;100620.50;;;9.78;91.44
86020;BME280;76596;51.056;-1.798;2024-03-17T05:20:45;100620.53;;;9.77;91.24
86020;BME280;76596;51.056;-1.798;2024-03-17T05:23:12;100621.34;;;9.80;91.09
86020;BME280;76596;51.056;-1.798;2024-03-17T05:25:37;100616.22;;;9.80;91.44
86020;BME280;76596;51.056;-1.798;2024-03-17T05:28:22;100616.22;;;9.80;91.48
86020;BME280;76596;51.056;-1.798;2024-03-17T05:30:47;100617.03;;;9.86;91.42
86020;BME280;76596;51.056;-1.798;2024-03-17T05:33:17;100619.59;;;9.86;91.14
86020;BME280;76596;51.056;-1.798;2024-03-17T05:35:54;100611.88;;;9.89;91.41
86020;BME280;76596;51.056;-1.798;2024-03-17T05:38:24;100611.88;;;9.89;91.36
86020;BME280;76596;51.056;-1.798;2024-03-17T05:41:00;100609.28;;;9.90;91.72
86020;BME280;76596;51.056;-1.798;2024-03-17T05:43:27;100612.72;;;9.91;91.84
86020;BME280;76596;51.056;-1.798;2024-03-17T05:46:00;100599.88;;;9.94;91.19
86020;BME280;76596;51.056;-1.798;2024-03-17T05:48:29;100603.25;;;9.96;91.25
86020;BME280;76596;51.056;-1.798;2024-03-17T05:50:54;100603.25;;;9.96;91.74
86020;BME280;76596;51.056;-1.798;2024-03-17T05:53:21;100601.50;;;10.01;91.58
86020;BME280;76596;51.056;-1.798;2024-03-17T05:55:47;100610.06;;;10.01;91.90
86020;BME280;76596;51.056;-1.798;2024-03-17T05:58:12;100598.06;;;10.02;91.31
86020;BME280;76596;51.056;-1.798;2024-03-17T06:00:40;100604.03;;;10.05;91.26
86020;BME280;76596;51.056;-1.798;2024-03-17T06:03:06;100602.34;;;10.04;91.33
86020;BME280;76596;51.056;-1.798;2024-03-17T06:05:33;100604.91;;;10.03;91.42
86020;BME280;76596;51.056;-1.798;2024-03-17T06:08:00;100598.88;;;10.07;91.54
86020;BME280;76596;51.056;-1.798;2024-03-17T06:10:25;100598.06;;;10.05;91.25
86020;BME280;76596;51.056;-1.798;2024-03-17T06:12:52;100596.31;;;10.07;91.43
86020;BME280;76596;51.056;-1.798;2024-03-17T06:15:17;100586.88;;;10.09;91.52
86020;BME280;76596;51.056;-1.798;2024-03-17T06:17:43;100590.28;;;10.10;91.39
86020;BME280;76596;51.056;-1.798;2024-03-17T06:20:08;100593.75;;;10.10;91.70
86020;BME280;76596;51.056;-1.798;2024-03-17T06:22:38;100595.44;;;10.08;91.37
86020;BME280;76596;51.056;-1.798;2024-03-17T06:25:04;100592.84;;;10.10;91.34
86020;BME280;76596;51.056;-1.798;2024-03-17T06:27:30;100592.84;;;10.10;91.41
86020;BME280;76596;51.056;-1.798;2024-03-17T06:29:56;100592.88;;;10.11;91.41
86020;BME280;76596;51.056;-1.798;2024-03-17T06:32:22;100588.59;;;10.08;91.72
86020;BME280;76596;51.056;-1.798;2024-03-17T06:34:47;100586.00;;;10.12;91.51
86020;BME280;76596;51.056;-1.798;2024-03-17T06:37:13;100580.06;;;10.06;92.19
86020;BME280;76596;51.056;-1.798;2024-03-17T06:39:38;100575.81;;;10.05;92.08
86020;BME280;76596;51.056;-1.798;2024-03-17T06:42:04;100580.91;;;10.07;91.33
86020;BME280;76596;51.056;-1.798;2024-03-17T06:44:30;100576.63;;;10.09;91.05
86020;BME280;76596;51.056;-1.798;2024-03-17T06:46:57;100574.91;;;10.08;91.15
86020;BME280;76596;51.056;-1.798;2024-03-17T06:49:23;100574.91;;;10.10;91.63
86020;BME280;76596;51.056;-1.798;2024-03-17T06:51:48;100574.91;;;10.08;91.42
86020;BME280;76596;51.056;-1.798;2024-03-17T06:54:14;100575.75;;;10.08;91.51
86020;BME280;76596;51.056;-1.798;2024-03-17T06:56:39;100574.91;;;10.08;92.18
86020;BME280;76596;51.056;-1.798;2024-03-17T06:59:05;100572.31;;;10.13;91.47
86020;BME280;76596;51.056;-1.798;2024-03-17T07:01:30;100571.50;;;10.11;91.39
86020;BME280;76596;51.056;-1.798;2024-03-17T07:03:56;100569.75;;;10.13;91.81
86020;BME280;76596;51.056;-1.798;2024-03-17T07:06:21;100563.78;;;10.11;91.34
86020;BME280;76596;51.056;-1.798;2024-03-17T07:08:46;100558.59;;;10.14;91.67
86020;BME280;76596;51.056;-1.798;2024-03-17T07:11:12;100565.44;;;10.16;91.60
86020;BME280;76596;51.056;-1.798;2024-03-17T07:13:38;100562.91;;;10.12;91.67
86020;BME280;76596;51.056;-1.798;2024-03-17T07:16:07;100565.50;;;10.10;91.72
86020;BME280;76596;51.056;-1.798;2024-03-17T07:18:33;100557.75;;;10.13;91.73
86020;BME280;76596;51.056;-1.798;2024-03-17T07:21:00;100562.03;;;10.13;91.30
86020;BME280;76596;51.056;-1.798;2024-03-17T07:23:26;100562.88;;;10.15;91.19
86020;BME280;76596;51.056;-1.798;2024-03-17T07:25:53;100571.44;;;10.14;91.85
86020;BME280;76596;51.056;-1.798;2024-03-17T07:28:19;100568.00;;;10.18;91.57
86020;BME280;76596;51.056;-1.798;2024-03-17T07:30:52;100575.72;;;10.16;91.53
86020;BME280;76596;51.056;-1.798;2024-03-17T07:33:19;100560.28;;;10.18;91.34
86020;BME280;76596;51.056;-1.798;2024-03-17T07:35:57;100565.41;;;10.18;91.54
86020;BME280;76596;51.056;-1.798;2024-03-17T07:38:26;100562.81;;;10.21;91.16
86020;BME280;76596;51.056;-1.798;2024-03-17T07:43:24;100563.69;;;10.20;91.65
86020;BME280;76596;51.056;-1.798;2024-03-17T07:48:25;100564.53;;;10.20;91.23
86020;BME280;76596;51.056;-1.798;2024-03-17T07:50:59;100565.38;;;10.22;91.68
86020;BME280;76596;51.056;-1.798;2024-03-17T07:53:26;100555.97;;;10.21;91.68
86020;BME280;76596;51.056;-1.798;2024-03-17T07:56:01;100566.22;;;10.24;91.67
86020;BME280;76596;51.056;-1.798;2024-03-17T07:58:29;100567.97;;;10.24;91.67
86020;BME280;76596;51.056;-1.798;2024-03-17T08:00:57;100569.66;;;10.23;91.71
86020;BME280;76596;51.056;-1.798;2024-03-17T08:03:28;100574.75;;;10.29;91.85
86020;BME280;76596;51.056;-1.798;2024-03-17T08:05:53;100563.63;;;10.26;92.06
86020;BME280;76596;51.056;-1.798;2024-03-17T08:08:19;100561.00;;;10.32;91.81
86020;BME280;76596;51.056;-1.798;2024-03-17T08:10:45;100565.22;;;10.41;91.54
86020;BME280;76596;51.056;-1.798;2024-03-17T08:13:13;100560.91;;;10.44;91.67
86020;BME280;76596;51.056;-1.798;2024-03-17T08:15:41;100558.31;;;10.46;91.32
86020;BME280;76596;51.056;-1.798;2024-03-17T08:18:06;100555.75;;;10.44;91.58
86020;BME280;76596;51.056;-1.798;2024-03-17T08:20:36;100558.31;;;10.46;91.40
86020;BME280;76596;51.056;-1.798;2024-03-17T08:23:02;100555.59;;;10.55;90.95
86020;BME280;76596;51.056;-1.798;2024-03-17T08:25:28;100557.34;;;10.53;91.32
86020;BME280;76596;51.056;-1.798;2024-03-17T08:27:53;100539.28;;;10.62;91.24
86020;BME280;76596;51.056;-1.798;2024-03-17T08:30:18;100534.81;;;10.75;91.25
86020;BME280;76596;51.056;-1.798;2024-03-17T08:32:44;100534.63;;;10.89;90.69
86020;BME280;76596;51.056;-1.798;2024-03-17T08:35:10;100530.19;;;11.00;90.29
86020;BME280;76596;51.056;-1.798;2024-03-17T08:37:38;100530.16;;;11.03;89.56
86020;BME280;76596;51.056;-1.798;2024-03-17T08:40:04;100539.50;;;11.08;89.87
86020;BME280;76596;51.056;-1.798;2024-03-17T08:42:32;100542.06;;;11.10;89.88
86020;BME280;76596;51.056;-1.798;2024-03-17T08:44:57;100555.78;;;11.09;89.52
86020;BME280;76596;51.056;-1.798;2024-03-17T08:47:22;100556.84;;;10.96;90.14
86020;BME280;76596;51.056;-1.798;2024-03-17T08:49:50;100559.47;;;10.90;90.54
86020;BME280;76596;51.056;-1.798;2024-03-17T08:52:16;100557.69;;;10.96;90.24
86020;BME280;76596;51.056;-1.798;2024-03-17T08:54:46;100548.31;;;10.91;90.57
86020;BME280;76596;51.056;-1.798;2024-03-17T08:57:12;100554.34;;;10.90;91.00
86020;BME280;76596;51.056;-1.798;2024-03-17T08:59:37;100564.59;;;10.91;91.00
86020;BME280;76596;51.056;-1.798;2024-03-17T09:02:03;100568.06;;;10.87;90.79
86020;BME280;76596;51.056;-1.798;2024-03-17T09:04:28;100565.56;;;10.82;91.04
86020;BME280;76596;51.056;-1.798;2024-03-17T09:06:54;100560.41;;;10.82;91.33
86020;BME280;76596;51.056;-1.798;2024-03-17T09:09:21;100554.47;;;10.79;91.00
86020;BME280;76596;51.056;-1.798;2024-03-17T09:11:47;100562.97;;;10.82;91.57
86020;BME280;76596;51.056;-1.798;2024-03-17T09:14:12;100561.28;;;10.81;91.24
86020;BME280;76596;51.056;-1.798;2024-03-17T09:16:38;100558.72;;;10.81;91.33
86020;BME280;76596;51.056;-1.798;2024-03-17T09:19:03;100562.91;;;10.89;91.37
86020;BME280;76596;51.056;-1.798;2024-03-17T09:21:28;100573.13;;;10.95;91.55
86020;BME280;76596;51.056;-1.798;2024-03-17T09:23:54;100567.88;;;11.02;91.10
86020;BME280;76596;51.056;-1.798;2024-03-17T09:26:19;100567.75;;;11.10;90.68
86020;BME280;76596;51.056;-1.798;2024-03-17T09:28:44;100574.34;;;11.28;90.96
86020;BME280;76596;51.056;-1.798;2024-03-17T09:31:11;100575.09;;;11.36;90.28
86020;BME280;76596;51.056;-1.798;2024-03-17T09:33:36;100569.16;;;11.32;89.63
86020;BME280;76596;51.056;-1.798;2024-03-17T09:36:03;100575.94;;;11.38;90.45
86020;BME280;76596;51.056;-1.798;2024-03-17T09:38:31;100576.16;;;11.23;90.27
86020;BME280;76596;51.056;-1.798;2024-03-17T09:40:57;100570.19;;;11.21;90.47
86020;BME280;76596;51.056;-1.798;2024-03-17T09:43:25;100572.72;;;11.22;90.54
86020;BME280;76596;51.056;-1.798;2024-03-17T09:45:51;100579.59;;;11.23;90.53
86020;BME280;76596;51.056;-1.798;2024-03-17T09:48:27;100575.28;;;11.22;90.76
86020;BME280;76596;51.056;-1.798;2024-03-17T09:50:55;100577.88;;;11.22;90.65
86020;BME280;76596;51.056;-1.798;2024-03-17T09:53:24;100581.22;;;11.27;91.03
86020;BME280;76596;51.056;-1.798;2024-03-17T09:55:50;100581.22;;;11.27;91.11
86020;BME280;76596;51.056;-1.798;2024-03-17T09:58:16;100570.03;;;11.31;91.03
86020;BME280;76596;51.056;-1.798;2024-03-17T10:00:45;100578.66;;;11.27;91.06
86020;BME280;76596;51.056;-1.798;2024-03-17T10:03:11;100583.78;;;11.27;90.98
86020;BME280;76596;51.056;-1.798;2024-03-17T10:05:37;100579.59;;;11.23;90.62
86020;BME280;76596;51.056;-1.798;2024-03-17T10:08:03;100581.91;;;11.40;90.84
86020;BME280;76596;51.056;-1.798;2024-03-17T10:10:29;100586.06;;;11.49;90.34
86020;BME280;76596;51.056;-1.798;2024-03-17T10:12:54;100578.81;;;11.72;90.01
86020;BME280;76596;51.056;-1.798;2024-03-17T10:15:20;100582.94;;;11.84;89.77
86020;BME280;76596;51.056;-1.798;2024-03-17T10:17:46;100578.72;;;11.81;88.96
86020;BME280;76596;51.056;-1.798;2024-03-17T10:22:58;100576.28;;;12.22;88.75
86020;BME280;76596;51.056;-1.798;2024-03-17T10:25:25;100568.84;;;12.51;86.72
86020;BME280;76596;51.056;-1.798;2024-03-17T10:27:52;100575.41;;;12.69;87.06
86020;BME280;76596;51.056;-1.798;2024-03-17T10:30:18;100577.13;;;12.67;86.30
86020;BME280;76596;51.056;-1.798;2024-03-17T10:32:45;100579.72;;;12.67;86.89
86020;BME280;76596;51.056;-1.798;2024-03-17T10:35:26;100578.78;;;12.71;84.83
86020;BME280;76596;51.056;-1.798;2024-03-17T10:38:12;100574.88;;;12.93;85.11
86020;BME280;76596;51.056;-1.798;2024-03-17T10:40:38;100573.63;;;13.11;84.74
86020;BME280;76596;51.056;-1.798;2024-03-17T10:43:05;100577.28;;;13.01;84.16
86020;BME280;76596;51.056;-1.798;2024-03-17T10:45:32;100578.63;;;13.19;85.84
86020;BME280;76596;51.056;-1.798;2024-03-17T10:48:01;100575.41;;;13.09;85.36
86020;BME280;76596;51.056;-1.798;2024-03-17T10:50:30;100568.91;;;12.91;84.03
86020;BME280;76596;51.056;-1.798;2024-03-17T10:53:01;100578.47;;;12.86;85.05
86020;BME280;76596;51.056;-1.798;2024-03-17T10:55:32;100568.88;;;12.93;84.48
86020;BME280;76596;51.056;-1.798;2024-03-17T10:58:02;100574.69;;;13.01;83.58
86020;BME280;76596;51.056;-1.798;2024-03-17T11:00:29;100575.53;;;13.02;85.45
86020;BME280;76596;51.056;-1.798;2024-03-17T11:02:55;100570.59;;;12.92;85.04
86020;BME280;76596;51.056;-1.798;2024-03-17T11:05:27;100574.00;;;12.94;85.57
86020;BME280;76596;51.056;-1.798;2024-03-17T11:07:59;100567.44;;;12.80;85.85
86020;BME280;76596;51.056;-1.798;2024-03-17T11:10:32;100580.53;;;12.69;85.53
86020;BME280;76596;51.056;-1.798;2024-03-17T11:12:58;100573.88;;;12.59;86.55
86020;BME280;76596;51.056;-1.798;2024-03-17T11:20:34;100578.72;;;12.31;86.72
86020;BME280;76596;51.056;-1.798;2024-03-17T11:23:00;100577.09;;;12.25;86.97
86020;BME280;76596;51.056;-1.798;2024-03-17T11:27:54;100588.31;;;12.21;87.27
86020;BME280;76596;51.056;-1.798;2024-03-17T11:46:43;100576.81;;;12.39;86.33
86020;BME280;76596;51.056;-1.798;2024-03-17T11:49:28;100576.06;;;12.35;85.04
86020;BME280;76596;51.056;-1.798;2024-03-17T11:51:55;100568.25;;;12.38;85.56
86020;BME280;76596;51.056;-1.798;2024-03-17T11:54:25;100577.63;;;12.42;84.57
86020;BME280;76596;51.056;-1.798;2024-03-17T11:56:53;100580.13;;;12.47;85.10
86020;BME280;76596;51.056;-1.798;2024-03-17T11:59:20;100577.53;;;12.47;84.11
86020;BME280;76596;51.056;-1.798;2024-03-17T12:01:46;100577.50;;;12.90;83.22
86020;BME280;76596;51.056;-1.798;2024-03-17T12:04:15;100572.44;;;15.50;75.23
86020;BME280;76596;51.056;-1.798;2024-03-17T12:09:20;100565.25;;;18.13;67.08
86020;BME280;76596;51.056;-1.798;2024-03-17T12:12:16;100552.31;;;17.49;64.42
86020;BME280;76596;51.056;-1.798;2024-03-17T12:14:42;100549.59;;;16.61;67.99
86020;BME280;76596;51.056;-1.798;2024-03-17T12:17:09;100549.47;;;16.17;69.08
86020;BME280;76596;51.056;-1.798;2024-03-17T12:19:36;100547.75;;;16.88;65.52
86020;BME280;76596;51.056;-1.798;2024-03-17T12:22:04;100552.25;;;17.72;66.06
86020;BME280;76596;51.056;-1.798;2024-03-17T12:24:36;100549.56;;;16.14;69.25
86020;BME280;76596;51.056;-1.798;2024-03-17T12:27:05;100551.63;;;16.29;70.89
86020;BME280;76596;51.056;-1.798;2024-03-17T12:29:37;100555.66;;;16.61;70.72
86020;BME280;76596;51.056;-1.798;2024-03-17T12:34:34;100546.84;;;17.34;65.94
86020;BME280;76596;51.056;-1.798;2024-03-17T12:37:00;100550.00;;;17.85;67.00
86020;BME280;76596;51.056;-1.798;2024-03-17T12:39:33;100546.41;;;17.65;64.99
86020;BME280;76596;51.056;-1.798;2024-03-17T12:42:06;100550.19;;;16.69;66.74
86020;BME280;76596;51.056;-1.798;2024-03-17T12:44:36;100553.25;;;15.82;68.16
86020;BME280;76596;51.056;-1.798;2024-03-17T12:47:15;100549.81;;;15.28;68.87
86020;BME280;76596;51.056;-1.798;2024-03-17T12:50:10;100549.53;;;15.10;68.85
86020;BME280;76596;51.056;-1.798;2024-03-17T12:52:33;100540.56;;;16.01;67.71
86020;BME280;76596;51.056;-1.798;2024-03-17T12:55:06;100535.94;;;16.57;69.62
86020;BME280;76596;51.056;-1.798;2024-03-17T12:57:51;100536.38;;;16.69;67.38
86020;BME280;76596;51.056;-1.798;2024-03-17T13:00:36;100539.38;;;16.58;66.00
86020;BME280;76596;51.056;-1.798;2024-03-17T13:03:06;100537.91;;;16.51;66.59
86020;BME280;76596;51.056;-1.798;2024-03-17T13:05:35;100541.09;;;16.34;66.43
86020;BME280;76596;51.056;-1.798;2024-03-17T13:08:01;100543.75;;;16.07;65.54
86020;BME280;76596;51.056;-1.798;2024-03-17T13:10:28;100539.59;;;16.03;64.94
86020;BME280;76596;51.056;-1.798;2024-03-17T13:13:00;100541.31;;;15.51;67.07
86020;BME280;76596;51.056;-1.798;2024-03-17T13:15:27;100531.38;;;15.66;66.95
86020;BME280;76596;51.056;-1.798;2024-03-17T13:17:52;100529.75;;;16.13;66.52
86020;BME280;76596;51.056;-1.798;2024-03-17T13:20:19;100528.47;;;16.25;65.00
86020;BME280;76596;51.056;-1.798;2024-03-17T13:22:45;100522.59;;;16.20;65.64